sensor_id;sensor_type;location;lat;lon;timestamp;P1;durP1;ratioP1;P2;durP2;ratioP2
18505;SDS011;9382;53.242;10.438;2023-01-26T00:01:58;72.90;;;24.50;;
18505;SDS011;9382;53.242;10.438;2023-01-26T00:04:26;70.97;;;23.43;;
18505;SDS011;9382;53.242;10.438;2023-01-26T00:06:53;75.87;;;25.50;;
18505;SDS011;9382;53.242;10.438;2023-01-26T00:09:19;74.77;;;25.57;;
18505;SDS011;9382;53.242;10.438;2023-01-26T00:11:46;78.03;;;27.70;;
18505;SDS011;9382;53.242;10.438;2023-01-26T00:14:13;74.63;;;25.67;;
18505;SDS011;9382;53.242;10.438;2023-01-26T00:16:40;70.53;;;24.40;;
18505;SDS011;9382;53.242;10.438;2023-01-26T00:19:06;70.53;;;24.40;;
18505;SDS011;9382;53.242;10.438;2023-01-26T00:21:35;72.63;;;25.83;;
18505;SDS011;9382;53.242;10.438;2023-01-26T00:24:01;82.33;;;26.20;;
18505;SDS011;9382;53.242;10.438;2023-01-26T00:26:29;75.00;;;26.07;;
18505;SDS011;9382;53.242;10.438;2023-01-26T00:28:56;79.87;;;25.83;;
18505;SDS011;9382;53.242;10.438;2023-01-26T00:31:25;79.43;;;25.17;;
18505;SDS011;9382;53.242;10.438;2023-01-26T00:33:53;80.10;;;26.10;;
18505;SDS011;9382;53.242;10.438;2023-01-26T00:36:21;78.13;;;24.60;;
18505;SDS011;9382;53.242;10.438;2023-01-26T00:38:49;77.33;;;25.83;;
18505;SDS011;9382;53.242;10.438;2023-01-26T00:41:15;84.63;;;27.07;;
18505;SDS011;9382;53.242;10.438;2023-01-26T00:44:00;86.83;;;28.47;;
18505;SDS011;9382;53.242;10.438;2023-01-26T00:46:26;89.10;;;29.07;;
18505;SDS011;9382;53.242;10.438;2023-01-26T00:48:53;82.90;;;29.73;;
18505;SDS011;9382;53.242;10.438;2023-01-26T00:51:20;84.00;;;28.47;;
18505;SDS011;9382;53.242;10.438;2023-01-26T00:53:48;88.60;;;29.17;;
18505;SDS011;9382;53.242;10.438;2023-01-26T00:56:15;86.63;;;28.93;;
18505;SDS011;9382;53.242;10.438;2023-01-26T00:58:42;91.30;;;29.37;;
18505;SDS011;9382;53.242;10.438;2023-01-26T01:01:09;84.17;;;27.80;;
18505;SDS011;9382;53.242;10.438;2023-01-26T01:03:36;85.70;;;28.67;;
18505;SDS011;9382;53.242;10.438;2023-01-26T01:06:03;86.33;;;28.77;;
18505;SDS011;9382;53.242;10.438;2023-01-26T01:08:30;79.93;;;27.90;;
18505;SDS011;9382;53.242;10.438;2023-01-26T01:11:05;84.37;;;27.37;;
18505;SDS011;9382;53.242;10.438;2023-01-26T01:13:33;83.80;;;30.80;;
18505;SDS011;9382;53.242;10.438;2023-01-26T01:16:03;91.20;;;29.60;;
18505;SDS011;9382;53.242;10.438;2023-01-26T01:18:30;87.60;;;28.30;;
18505;SDS011;9382;53.242;10.438;2023-01-26T01:20:57;82.73;;;28.30;;
18505;SDS011;9382;53.242;10.438;2023-01-26T01:23:26;88.60;;;30.87;;
18505;SDS011;9382;53.242;10.438;2023-01-26T01:25:55;91.17;;;29.67;;
18505;SDS011;9382;53.242;10.438;2023-01-26T01:28:23;87.67;;;27.93;;
18505;SDS011;9382;53.242;10.438;2023-01-26T01:30:50;88.53;;;27.57;;
18505;SDS011;9382;53.242;10.438;2023-01-26T01:33:17;92.13;;;29.43;;
18505;SDS011;9382;53.242;10.438;2023-01-26T01:35:50;84.30;;;29.63;;
18505;SDS011;9382;53.242;10.438;2023-01-26T01:38:21;80.40;;;27.27;;
18505;SDS011;9382;53.242;10.438;2023-01-26T01:40:47;82.87;;;28.77;;
18505;SDS011;9382;53.242;10.438;2023-01-26T01:43:14;85.93;;;28.13;;
18505;SDS011;9382;53.242;10.438;2023-01-26T01:45:43;83.83;;;27.73;;
18505;SDS011;9382;53.242;10.438;2023-01-26T01:48:12;82.43;;;29.23;;
18505;SDS011;9382;53.242;10.438;2023-01-26T01:50:44;88.90;;;30.57;;
18505;SDS011;9382;53.242;10.438;2023-01-26T01:53:12;84.00;;;28.53;;
18505;SDS011;9382;53.242;10.438;2023-01-26T01:55:43;83.70;;;26.80;;
18505;SDS011;9382;53.242;10.438;2023-01-26T01:58:11;82.90;;;27.07;;
18505;SDS011;9382;53.242;10.438;2023-01-26T02:00:38;85.87;;;26.20;;
18505;SDS011;9382;53.242;10.438;2023-01-26T02:03:07;84.87;;;26.77;;
18505;SDS011;9382;53.242;10.438;2023-01-26T02:05:40;89.03;;;28.83;;
18505;SDS011;9382;53.242;10.438;2023-01-26T02:08:13;88.30;;;27.67;;
18505;SDS011;9382;53.242;10.438;2023-01-26T02:10:42;94.83;;;29.03;;
18505;SDS011;9382;53.242;10.438;2023-01-26T02:13:11;94.33;;;30.43;;
18505;SDS011;9382;53.242;10.438;2023-01-26T02:15:39;99.27;;;29.97;;
18505;SDS011;9382;53.242;10.438;2023-01-26T02:18:08;97.43;;;29.70;;
18505;SDS011;9382;53.242;10.438;2023-01-26T02:20:35;93.30;;;28.67;;
18505;SDS011;9382;53.242;10.438;2023-01-26T02:23:10;90.77;;;27.90;;
18505;SDS011;9382;53.242;10.438;2023-01-26T02:25:46;99.97;;;30.97;;
18505;SDS011;9382;53.242;10.438;2023-01-26T02:28:25;85.83;;;28.83;;
18505;SDS011;9382;53.242;10.438;2023-01-26T02:30:53;89.03;;;28.67;;
18505;SDS011;9382;53.242;10.438;2023-01-26T02:33:22;90.90;;;30.63;;
18505;SDS011;9382;53.242;10.438;2023-01-26T02:35:51;98.37;;;28.27;;
18505;SDS011;9382;53.242;10.438;2023-01-26T02:38:18;95.37;;;28.13;;
18505;SDS011;9382;53.242;10.438;2023-01-26T02:40:47;88.40;;;27.07;;
18505;SDS011;9382;53.242;10.438;2023-01-26T02:43:20;92.27;;;28.77;;
18505;SDS011;9382;53.242;10.438;2023-01-26T02:45:49;93.37;;;26.33;;
18505;SDS011;9382;53.242;10.438;2023-01-26T02:48:16;90.07;;;26.57;;
18505;SDS011;9382;53.242;10.438;2023-01-26T02:51:04;92.13;;;27.07;;
18505;SDS011;9382;53.242;10.438;2023-01-26T02:53:30;95.13;;;28.60;;
18505;SDS011;9382;53.242;10.438;2023-01-26T02:55:57;95.07;;;29.80;;
18505;SDS011;9382;53.242;10.438;2023-01-26T02:58:24;97.03;;;29.17;;
18505;SDS011;9382;53.242;10.438;2023-01-26T03:00:51;96.53;;;29.07;;
18505;SDS011;9382;53.242;10.438;2023-01-26T03:03:18;96.40;;;28.77;;
18505;SDS011;9382;53.242;10.438;2023-01-26T03:05:47;95.63;;;28.87;;
18505;SDS011;9382;53.242;10.438;2023-01-26T03:08:14;97.33;;;30.07;;
18505;SDS011;9382;53.242;10.438;2023-01-26T03:10:41;101.27;;;32.00;;
18505;SDS011;9382;53.242;10.438;2023-01-26T03:13:08;99.00;;;29.20;;
18505;SDS011;9382;53.242;10.438;2023-01-26T03:15:36;95.53;;;29.90;;
18505;SDS011;9382;53.242;10.438;2023-01-26T03:18:16;91.97;;;31.07;;
18505;SDS011;9382;53.242;10.438;2023-01-26T03:21:03;96.13;;;31.63;;
18505;SDS011;9382;53.242;10.438;2023-01-26T03:23:49;92.73;;;30.00;;
18505;SDS011;9382;53.242;10.438;2023-01-26T03:26:34;103.67;;;31.83;;
18505;SDS011;9382;53.242;10.438;2023-01-26T03:29:19;96.00;;;28.67;;
18505;SDS011;9382;53.242;10.438;2023-01-26T03:31:47;93.47;;;29.07;;
18505;SDS011;9382;53.242;10.438;2023-01-26T03:34:14;95.67;;;29.87;;
18505;SDS011;9382;53.242;10.438;2023-01-26T03:36:40;96.77;;;31.13;;
18505;SDS011;9382;53.242;10.438;2023-01-26T03:39:07;86.07;;;29.53;;
18505;SDS011;9382;53.242;10.438;2023-01-26T03:41:34;80.13;;;27.17;;
18505;SDS011;9382;53.242;10.438;2023-01-26T03:44:18;86.03;;;28.30;;
18505;SDS011;9382;53.242;10.438;2023-01-26T03:47:04;86.37;;;26.97;;
18505;SDS011;9382;53.242;10.438;2023-01-26T03:49:48;86.20;;;27.40;;
18505;SDS011;9382;53.242;10.438;2023-01-26T03:52:32;93.27;;;28.37;;
18505;SDS011;9382;53.242;10.438;2023-01-26T03:55:16;82.03;;;26.03;;
18505;SDS011;9382;53.242;10.438;2023-01-26T03:58:00;79.07;;;25.07;;
18505;SDS011;9382;53.242;10.438;2023-01-26T04:00:27;92.27;;;29.07;;
18505;SDS011;9382;53.242;10.438;2023-01-26T04:02:55;84.70;;;28.10;;
18505;SDS011;9382;53.242;10.438;2023-01-26T04:05:39;83.77;;;28.27;;
18505;SDS011;9382;53.242;10.438;2023-01-26T04:08:24;84.10;;;28.80;;
18505;SDS011;9382;53.242;10.438;2023-01-26T04:10:51;80.47;;;28.40;;
18505;SDS011;9382;53.242;10.438;2023-01-26T04:13:19;76.33;;;28.07;;
18505;SDS011;9382;53.242;10.438;2023-01-26T04:16:04;84.20;;;27.37;;
18505;SDS011;9382;53.242;10.438;2023-01-26T04:18:51;84.40;;;28.20;;
18505;SDS011;9382;53.242;10.438;2023-01-26T04:21:35;89.07;;;27.73;;
18505;SDS011;9382;53.242;10.438;2023-01-26T04:24:02;84.27;;;28.33;;
18505;SDS011;9382;53.242;10.438;2023-01-26T04:26:38;95.17;;;31.07;;
18505;SDS011;9382;53.242;10.438;2023-01-26T04:29:07;90.70;;;27.67;;
18505;SDS011;9382;53.242;10.438;2023-01-26T04:31:35;89.23;;;27.70;;
18505;SDS011;9382;53.242;10.438;2023-01-26T04:34:04;87.90;;;28.57;;
18505;SDS011;9382;53.242;10.438;2023-01-26T04:36:33;87.37;;;28.37;;
18505;SDS011;9382;53.242;10.438;2023-01-26T04:38:59;95.70;;;28.90;;
18505;SDS011;9382;53.242;10.438;2023-01-26T04:41:27;86.57;;;27.77;;
18505;SDS011;9382;53.242;10.438;2023-01-26T04:43:54;93.63;;;29.50;;
18505;SDS011;9382;53.242;10.438;2023-01-26T04:46:21;86.60;;;27.20;;
18505;SDS011;9382;53.242;10.438;2023-01-26T04:48:48;94.63;;;28.87;;
18505;SDS011;9382;53.242;10.438;2023-01-26T04:51:17;80.57;;;26.47;;
18505;SDS011;9382;53.242;10.438;2023-01-26T04:53:45;83.53;;;26.73;;
18505;SDS011;9382;53.242;10.438;2023-01-26T04:56:14;82.67;;;26.43;;
18505;SDS011;9382;53.242;10.438;2023-01-26T04:58:45;82.93;;;25.40;;
18505;SDS011;9382;53.242;10.438;2023-01-26T05:01:12;86.40;;;26.50;;
18505;SDS011;9382;53.242;10.438;2023-01-26T05:03:39;89.27;;;27.30;;
18505;SDS011;9382;53.242;10.438;2023-01-26T05:06:06;83.47;;;25.70;;
18505;SDS011;9382;53.242;10.438;2023-01-26T05:08:34;88.33;;;25.73;;
18505;SDS011;9382;53.242;10.438;2023-01-26T05:11:01;88.53;;;25.37;;
18505;SDS011;9382;53.242;10.438;2023-01-26T05:13:29;83.20;;;25.83;;
18505;SDS011;9382;53.242;10.438;2023-01-26T05:15:56;83.43;;;25.17;;
18505;SDS011;9382;53.242;10.438;2023-01-26T05:18:22;90.80;;;26.10;;
18505;SDS011;9382;53.242;10.438;2023-01-26T05:20:49;82.10;;;24.27;;
18505;SDS011;9382;53.242;10.438;2023-01-26T05:23:16;85.87;;;27.17;;
18505;SDS011;9382;53.242;10.438;2023-01-26T05:25:44;85.40;;;26.27;;
18505;SDS011;9382;53.242;10.438;2023-01-26T05:28:11;88.10;;;27.70;;
18505;SDS011;9382;53.242;10.438;2023-01-26T05:30:37;87.67;;;29.70;;
18505;SDS011;9382;53.242;10.438;2023-01-26T05:33:05;89.73;;;28.37;;
18505;SDS011;9382;53.242;10.438;2023-01-26T05:35:33;85.80;;;27.17;;
18505;SDS011;9382;53.242;10.438;2023-01-26T05:38:00;92.73;;;28.77;;
18505;SDS011;9382;53.242;10.438;2023-01-26T05:40:27;83.93;;;27.67;;
18505;SDS011;9382;53.242;10.438;2023-01-26T05:42:55;87.23;;;26.67;;
18505;SDS011;9382;53.242;10.438;2023-01-26T05:45:22;83.73;;;27.53;;
18505;SDS011;9382;53.242;10.438;2023-01-26T05:47:49;82.27;;;27.90;;
18505;SDS011;9382;53.242;10.438;2023-01-26T05:50:15;85.90;;;28.63;;
18505;SDS011;9382;53.242;10.438;2023-01-26T05:52:42;80.57;;;27.83;;
18505;SDS011;9382;53.242;10.438;2023-01-26T05:55:10;86.47;;;28.60;;
18505;SDS011;9382;53.242;10.438;2023-01-26T05:57:38;87.03;;;29.10;;
18505;SDS011;9382;53.242;10.438;2023-01-26T06:00:07;85.57;;;29.87;;
18505;SDS011;9382;53.242;10.438;2023-01-26T06:02:35;91.80;;;30.37;;
18505;SDS011;9382;53.242;10.438;2023-01-26T06:05:02;91.60;;;29.53;;
18505;SDS011;9382;53.242;10.438;2023-01-26T06:07:29;87.40;;;29.40;;
18505;SDS011;9382;53.242;10.438;2023-01-26T06:09:56;87.60;;;29.93;;
18505;SDS011;9382;53.242;10.438;2023-01-26T06:12:23;94.70;;;28.87;;
18505;SDS011;9382;53.242;10.438;2023-01-26T06:14:52;89.67;;;27.37;;
18505;SDS011;9382;53.242;10.438;2023-01-26T06:17:20;93.63;;;30.10;;
18505;SDS011;9382;53.242;10.438;2023-01-26T06:19:47;93.73;;;30.27;;
18505;SDS011;9382;53.242;10.438;2023-01-26T06:22:13;91.77;;;32.23;;
18505;SDS011;9382;53.242;10.438;2023-01-26T06:24:40;93.30;;;29.67;;
18505;SDS011;9382;53.242;10.438;2023-01-26T06:27:07;96.37;;;28.80;;
18505;SDS011;9382;53.242;10.438;2023-01-26T06:29:38;97.07;;;30.90;;
18505;SDS011;9382;53.242;10.438;2023-01-26T06:32:05;92.53;;;28.87;;
18505;SDS011;9382;53.242;10.438;2023-01-26T06:34:33;91.10;;;29.07;;
18505;SDS011;9382;53.242;10.438;2023-01-26T06:37:00;89.97;;;29.43;;
18505;SDS011;9382;53.242;10.438;2023-01-26T06:39:27;89.30;;;29.73;;
18505;SDS011;9382;53.242;10.438;2023-01-26T06:41:54;114.27;;;36.03;;
18505;SDS011;9382;53.242;10.438;2023-01-26T06:44:21;90.77;;;29.23;;
18505;SDS011;9382;53.242;10.438;2023-01-26T06:46:47;91.33;;;30.27;;
18505;SDS011;9382;53.242;10.438;2023-01-26T06:49:14;88.07;;;30.70;;
18505;SDS011;9382;53.242;10.438;2023-01-26T06:51:44;97.33;;;30.70;;
18505;SDS011;9382;53.242;10.438;2023-01-26T06:54:20;92.70;;;28.87;;
18505;SDS011;9382;53.242;10.438;2023-01-26T06:56:47;100.37;;;30.17;;
18505;SDS011;9382;53.242;10.438;2023-01-26T06:59:14;91.87;;;27.37;;
18505;SDS011;9382;53.242;10.438;2023-01-26T07:01:42;102.37;;;30.93;;
18505;SDS011;9382;53.242;10.438;2023-01-26T07:04:11;96.50;;;30.97;;
18505;SDS011;9382;53.242;10.438;2023-01-26T07:06:38;90.40;;;27.53;;
18505;SDS011;9382;53.242;10.438;2023-01-26T07:09:06;84.13;;;26.23;;
18505;SDS011;9382;53.242;10.438;2023-01-26T07:11:32;84.97;;;25.33;;
18505;SDS011;9382;53.242;10.438;2023-01-26T07:13:59;89.83;;;27.37;;
18505;SDS011;9382;53.242;10.438;2023-01-26T07:16:26;92.30;;;29.00;;
18505;SDS011;9382;53.242;10.438;2023-01-26T07:18:53;82.03;;;27.60;;
18505;SDS011;9382;53.242;10.438;2023-01-26T07:21:21;85.03;;;27.93;;
18505;SDS011;9382;53.242;10.438;2023-01-26T07:23:48;80.97;;;26.53;;
18505;SDS011;9382;53.242;10.438;2023-01-26T07:26:16;81.93;;;26.27;;
18505;SDS011;9382;53.242;10.438;2023-01-26T07:28:43;81.87;;;26.37;;
18505;SDS011;9382;53.242;10.438;2023-01-26T07:31:10;82.77;;;26.23;;
18505;SDS011;9382;53.242;10.438;2023-01-26T07:33:37;81.77;;;28.60;;
18505;SDS011;9382;53.242;10.438;2023-01-26T07:36:04;89.43;;;29.20;;
18505;SDS011;9382;53.242;10.438;2023-01-26T07:38:31;88.30;;;28.07;;
18505;SDS011;9382;53.242;10.438;2023-01-26T07:41:03;81.43;;;26.67;;
18505;SDS011;9382;53.242;10.438;2023-01-26T07:43:33;83.90;;;28.83;;
18505;SDS011;9382;53.242;10.438;2023-01-26T07:46:00;83.03;;;29.87;;
18505;SDS011;9382;53.242;10.438;2023-01-26T07:48:27;82.40;;;28.63;;
18505;SDS011;9382;53.242;10.438;2023-01-26T07:50:56;79.90;;;27.40;;
18505;SDS011;9382;53.242;10.438;2023-01-26T07:53:23;84.27;;;26.60;;
18505;SDS011;9382;53.242;10.438;2023-01-26T07:55:53;84.30;;;26.97;;
18505;SDS011;9382;53.242;10.438;2023-01-26T07:58:20;79.57;;;24.83;;
18505;SDS011;9382;53.242;10.438;2023-01-26T08:00:48;87.83;;;27.07;;
18505;SDS011;9382;53.242;10.438;2023-01-26T08:03:15;83.90;;;26.33;;
18505;SDS011;9382;53.242;10.438;2023-01-26T08:05:41;82.70;;;26.40;;
18505;SDS011;9382;53.242;10.438;2023-01-26T08:08:08;83.97;;;27.33;;
18505;SDS011;9382;53.242;10.438;2023-01-26T08:10:35;91.80;;;25.70;;
18505;SDS011;9382;53.242;10.438;2023-01-26T08:13:02;84.30;;;25.40;;
18505;SDS011;9382;53.242;10.438;2023-01-26T08:15:28;88.33;;;26.27;;
18505;SDS011;9382;53.242;10.438;2023-01-26T08:17:57;94.80;;;26.87;;
18505;SDS011;9382;53.242;10.438;2023-01-26T08:20:27;88.77;;;28.33;;
18505;SDS011;9382;53.242;10.438;2023-01-26T08:22:54;88.53;;;27.47;;
18505;SDS011;9382;53.242;10.438;2023-01-26T08:25:21;94.57;;;28.17;;
18505;SDS011;9382;53.242;10.438;2023-01-26T08:27:48;83.53;;;29.20;;
18505;SDS011;9382;53.242;10.438;2023-01-26T08:30:15;84.00;;;28.20;;
18505;SDS011;9382;53.242;10.438;2023-01-26T08:32:42;87.70;;;27.50;;
18505;SDS011;9382;53.242;10.438;2023-01-26T08:35:10;88.03;;;26.67;;
18505;SDS011;9382;53.242;10.438;2023-01-26T08:37:37;83.83;;;25.93;;
18505;SDS011;9382;53.242;10.438;2023-01-26T08:40:04;81.43;;;26.53;;
18505;SDS011;9382;53.242;10.438;2023-01-26T08:42:32;77.10;;;25.07;;
18505;SDS011;9382;53.242;10.438;2023-01-26T08:44:58;79.47;;;26.20;;
18505;SDS011;9382;53.242;10.438;2023-01-26T08:47:25;87.30;;;27.63;;
18505;SDS011;9382;53.242;10.438;2023-01-26T08:49:52;79.97;;;26.33;;
18505;SDS011;9382;53.242;10.438;2023-01-26T08:52:20;88.73;;;29.17;;
18505;SDS011;9382;53.242;10.438;2023-01-26T08:54:46;78.50;;;26.60;;
18505;SDS011;9382;53.242;10.438;2023-01-26T08:57:13;77.80;;;27.70;;
18505;SDS011;9382;53.242;10.438;2023-01-26T08:59:40;76.73;;;25.00;;
18505;SDS011;9382;53.242;10.438;2023-01-26T09:02:07;78.10;;;24.73;;
18505;SDS011;9382;53.242;10.438;2023-01-26T09:04:34;82.10;;;25.47;;
18505;SDS011;9382;53.242;10.438;2023-01-26T09:07:01;74.80;;;24.93;;
18505;SDS011;9382;53.242;10.438;2023-01-26T09:09:29;79.83;;;26.10;;
18505;SDS011;9382;53.242;10.438;2023-01-26T09:11:56;75.83;;;25.07;;
18505;SDS011;9382;53.242;10.438;2023-01-26T09:14:22;79.67;;;27.43;;
18505;SDS011;9382;53.242;10.438;2023-01-26T09:16:49;74.73;;;25.77;;
18505;SDS011;9382;53.242;10.438;2023-01-26T09:19:16;77.37;;;26.27;;
18505;SDS011;9382;53.242;10.438;2023-01-26T09:21:43;72.73;;;25.13;;
18505;SDS011;9382;53.242;10.438;2023-01-26T09:24:09;74.57;;;26.40;;
18505;SDS011;9382;53.242;10.438;2023-01-26T09:26:37;71.90;;;26.23;;
18505;SDS011;9382;53.242;10.438;2023-01-26T09:29:04;71.17;;;24.73;;
18505;SDS011;9382;53.242;10.438;2023-01-26T09:31:31;72.17;;;24.50;;
18505;SDS011;9382;53.242;10.438;2023-01-26T09:33:58;74.37;;;25.77;;
18505;SDS011;9382;53.242;10.438;2023-01-26T09:36:24;70.47;;;25.50;;
18505;SDS011;9382;53.242;10.438;2023-01-26T09:38:51;69.77;;;24.80;;
18505;SDS011;9382;53.242;10.438;2023-01-26T09:41:21;67.00;;;24.53;;
18505;SDS011;9382;53.242;10.438;2023-01-26T09:44:05;69.77;;;24.30;;
18505;SDS011;9382;53.242;10.438;2023-01-26T09:46:39;66.60;;;24.20;;
18505;SDS011;9382;53.242;10.438;2023-01-26T09:49:12;72.50;;;24.27;;
18505;SDS011;9382;53.242;10.438;2023-01-26T09:51:44;65.13;;;23.10;;
18505;SDS011;9382;53.242;10.438;2023-01-26T09:54:18;68.27;;;22.90;;
18505;SDS011;9382;53.242;10.438;2023-01-26T09:56:51;75.77;;;25.00;;
18505;SDS011;9382;53.242;10.438;2023-01-26T09:59:29;68.97;;;24.63;;
18505;SDS011;9382;53.242;10.438;2023-01-26T10:02:01;72.90;;;25.00;;
18505;SDS011;9382;53.242;10.438;2023-01-26T10:04:42;59.50;;;22.23;;
18505;SDS011;9382;53.242;10.438;2023-01-26T10:07:12;65.93;;;22.50;;
18505;SDS011;9382;53.242;10.438;2023-01-26T10:09:40;70.57;;;25.43;;
18505;SDS011;9382;53.242;10.438;2023-01-26T10:12:16;68.27;;;23.60;;
18505;SDS011;9382;53.242;10.438;2023-01-26T10:14:50;70.27;;;23.23;;
18505;SDS011;9382;53.242;10.438;2023-01-26T10:17:19;64.77;;;23.60;;
18505;SDS011;9382;53.242;10.438;2023-01-26T10:19:54;68.50;;;23.83;;
18505;SDS011;9382;53.242;10.438;2023-01-26T10:22:26;65.23;;;22.90;;
18505;SDS011;9382;53.242;10.438;2023-01-26T10:25:00;63.67;;;23.57;;
18505;SDS011;9382;53.242;10.438;2023-01-26T10:27:27;67.13;;;23.17;;
18505;SDS011;9382;53.242;10.438;2023-01-26T10:29:55;69.00;;;25.00;;
18505;SDS011;9382;53.242;10.438;2023-01-26T10:32:22;62.13;;;23.17;;
18505;SDS011;9382;53.242;10.438;2023-01-26T10:34:49;65.37;;;24.27;;
18505;SDS011;9382;53.242;10.438;2023-01-26T10:37:21;65.03;;;22.33;;
18505;SDS011;9382;53.242;10.438;2023-01-26T10:39:59;69.60;;;24.17;;
18505;SDS011;9382;53.242;10.438;2023-01-26T10:42:28;70.17;;;21.77;;
18505;SDS011;9382;53.242;10.438;2023-01-26T10:44:57;68.63;;;24.70;;
18505;SDS011;9382;53.242;10.438;2023-01-26T10:47:27;68.80;;;24.43;;
18505;SDS011;9382;53.242;10.438;2023-01-26T10:50:03;61.80;;;22.73;;
18505;SDS011;9382;53.242;10.438;2023-01-26T10:52:47;64.97;;;22.53;;
18505;SDS011;9382;53.242;10.438;2023-01-26T10:55:22;70.40;;;25.03;;
18505;SDS011;9382;53.242;10.438;2023-01-26T10:57:49;58.27;;;21.73;;
18505;SDS011;9382;53.242;10.438;2023-01-26T11:00:23;58.93;;;21.87;;
18505;SDS011;9382;53.242;10.438;2023-01-26T11:02:53;59.73;;;22.70;;
18505;SDS011;9382;53.242;10.438;2023-01-26T11:05:21;60.57;;;21.93;;
18505;SDS011;9382;53.242;10.438;2023-01-26T11:07:49;61.60;;;22.13;;
18505;SDS011;9382;53.242;10.438;2023-01-26T11:10:23;62.87;;;22.53;;
18505;SDS011;9382;53.242;10.438;2023-01-26T11:13:04;60.80;;;22.33;;
18505;SDS011;9382;53.242;10.438;2023-01-26T11:15:45;58.73;;;21.00;;
18505;SDS011;9382;53.242;10.438;2023-01-26T11:18:16;58.53;;;21.77;;
18505;SDS011;9382;53.242;10.438;2023-01-26T11:20:55;54.87;;;19.90;;
18505;SDS011;9382;53.242;10.438;2023-01-26T11:23:31;57.83;;;21.93;;
18505;SDS011;9382;53.242;10.438;2023-01-26T11:26:14;55.23;;;21.90;;
18505;SDS011;9382;53.242;10.438;2023-01-26T11:28:51;57.87;;;20.53;;
18505;SDS011;9382;53.242;10.438;2023-01-26T11:31:30;52.60;;;20.07;;
18505;SDS011;9382;53.242;10.438;2023-01-26T11:34:09;57.37;;;20.47;;
18505;SDS011;9382;53.242;10.438;2023-01-26T11:36:47;53.47;;;20.50;;
18505;SDS011;9382;53.242;10.438;2023-01-26T11:39:22;57.80;;;21.37;;
18505;SDS011;9382;53.242;10.438;2023-01-26T11:42:00;52.67;;;19.83;;
18505;SDS011;9382;53.242;10.438;2023-01-26T11:44:43;54.70;;;20.60;;
18505;SDS011;9382;53.242;10.438;2023-01-26T11:47:20;53.20;;;19.50;;
18505;SDS011;9382;53.242;10.438;2023-01-26T11:50:02;55.10;;;20.53;;
18505;SDS011;9382;53.242;10.438;2023-01-26T11:52:45;53.50;;;20.20;;
18505;SDS011;9382;53.242;10.438;2023-01-26T11:55:23;54.83;;;21.47;;
18505;SDS011;9382;53.242;10.438;2023-01-26T11:58:01;50.20;;;19.67;;
18505;SDS011;9382;53.242;10.438;2023-01-26T12:00:40;55.00;;;20.43;;
18505;SDS011;9382;53.242;10.438;2023-01-26T12:03:14;49.57;;;19.40;;
18505;SDS011;9382;53.242;10.438;2023-01-26T12:05:47;55.43;;;20.50;;
18505;SDS011;9382;53.242;10.438;2023-01-26T12:08:19;52.87;;;18.60;;
18505;SDS011;9382;53.242;10.438;2023-01-26T12:11:01;58.93;;;20.47;;
18505;SDS011;9382;53.242;10.438;2023-01-26T12:13:45;55.30;;;19.87;;
18505;SDS011;9382;53.242;10.438;2023-01-26T12:16:19;53.20;;;20.77;;
18505;SDS011;9382;53.242;10.438;2023-01-26T12:18:58;53.80;;;20.13;;
18505;SDS011;9382;53.242;10.438;2023-01-26T12:21:34;47.70;;;18.33;;
18505;SDS011;9382;53.242;10.438;2023-01-26T12:24:04;48.10;;;19.27;;
18505;SDS011;9382;53.242;10.438;2023-01-26T12:26:32;46.83;;;18.07;;
18505;SDS011;9382;53.242;10.438;2023-01-26T12:29:02;45.60;;;18.40;;
18505;SDS011;9382;53.242;10.438;2023-01-26T12:31:37;41.63;;;16.10;;
18505;SDS011;9382;53.242;10.438;2023-01-26T12:34:11;38.50;;;14.93;;
18505;SDS011;9382;53.242;10.438;2023-01-26T12:36:41;41.90;;;17.00;;
18505;SDS011;9382;53.242;10.438;2023-01-26T12:39:14;43.97;;;17.43;;
18505;SDS011;9382;53.242;10.438;2023-01-26T12:41:57;44.57;;;17.90;;
18505;SDS011;9382;53.242;10.438;2023-01-26T12:44:31;38.10;;;16.47;;
18505;SDS011;9382;53.242;10.438;2023-01-26T12:47:04;47.67;;;18.40;;
18505;SDS011;9382;53.242;10.438;2023-01-26T12:49:43;36.43;;;16.03;;
18505;SDS011;9382;53.242;10.438;2023-01-26T12:52:15;41.63;;;17.10;;
18505;SDS011;9382;53.242;10.438;2023-01-26T12:54:46;36.03;;;16.57;;
18505;SDS011;9382;53.242;10.438;2023-01-26T12:57:20;36.60;;;15.33;;
18505;SDS011;9382;53.242;10.438;2023-01-26T12:59:50;33.47;;;13.80;;
18505;SDS011;9382;53.242;10.438;2023-01-26T13:02:25;29.73;;;12.83;;
18505;SDS011;9382;53.242;10.438;2023-01-26T13:04:56;35.03;;;14.20;;
18505;SDS011;9382;53.242;10.438;2023-01-26T13:07:26;33.07;;;14.87;;
18505;SDS011;9382;53.242;10.438;2023-01-26T13:10:08;31.93;;;14.17;;
18505;SDS011;9382;53.242;10.438;2023-01-26T13:12:45;32.90;;;14.30;;
18505;SDS011;9382;53.242;10.438;2023-01-26T13:15:14;33.27;;;14.83;;
18505;SDS011;9382;53.242;10.438;2023-01-26T13:17:50;35.93;;;15.30;;
18505;SDS011;9382;53.242;10.438;2023-01-26T13:26:10;35.17;;;15.00;;
18505;SDS011;9382;53.242;10.438;2023-01-26T13:28:40;36.97;;;15.10;;
18505;SDS011;9382;53.242;10.438;2023-01-26T13:31:07;35.30;;;15.47;;
18505;SDS011;9382;53.242;10.438;2023-01-26T13:33:35;37.67;;;15.03;;
18505;SDS011;9382;53.242;10.438;2023-01-26T13:36:03;41.50;;;16.80;;
18505;SDS011;9382;53.242;10.438;2023-01-26T13:38:40;42.00;;;17.57;;
18505;SDS011;9382;53.242;10.438;2023-01-26T13:41:11;41.60;;;17.43;;
18505;SDS011;9382;53.242;10.438;2023-01-26T13:43:42;43.03;;;18.23;;
18505;SDS011;9382;53.242;10.438;2023-01-26T13:46:14;42.97;;;18.03;;
18505;SDS011;9382;53.242;10.438;2023-01-26T13:48:47;51.77;;;20.07;;
18505;SDS011;9382;53.242;10.438;2023-01-26T13:51:19;46.37;;;19.43;;
18505;SDS011;9382;53.242;10.438;2023-01-26T13:53:53;53.03;;;19.53;;
18505;SDS011;9382;53.242;10.438;2023-01-26T13:56:23;58.17;;;20.13;;
18505;SDS011;9382;53.242;10.438;2023-01-26T13:58:52;51.07;;;19.77;;
18505;SDS011;9382;53.242;10.438;2023-01-26T14:01:19;50.83;;;19.90;;
18505;SDS011;9382;53.242;10.438;2023-01-26T14:03:46;52.33;;;20.17;;
18505;SDS011;9382;53.242;10.438;2023-01-26T14:06:13;51.97;;;20.83;;
18505;SDS011;9382;53.242;10.438;2023-01-26T14:08:46;59.90;;;22.33;;
18505;SDS011;9382;53.242;10.438;2023-01-26T14:11:16;63.23;;;22.97;;
18505;SDS011;9382;53.242;10.438;2023-01-26T14:13:46;60.43;;;21.23;;
18505;SDS011;9382;53.242;10.438;2023-01-26T14:16:20;66.40;;;22.87;;
18505;SDS011;9382;53.242;10.438;2023-01-26T14:18:49;68.47;;;23.03;;
18505;SDS011;9382;53.242;10.438;2023-01-26T14:21:17;63.53;;;20.60;;
18505;SDS011;9382;53.242;10.438;2023-01-26T14:23:49;69.50;;;22.17;;
18505;SDS011;9382;53.242;10.438;2023-01-26T14:26:20;68.40;;;22.27;;
18505;SDS011;9382;53.242;10.438;2023-01-26T14:28:54;72.03;;;22.47;;
18505;SDS011;9382;53.242;10.438;2023-01-26T14:31:22;72.03;;;23.07;;
18505;SDS011;9382;53.242;10.438;2023-01-26T14:33:51;72.40;;;23.03;;
18505;SDS011;9382;53.242;10.438;2023-01-26T14:36:21;64.83;;;22.70;;
18505;SDS011;9382;53.242;10.438;2023-01-26T14:38:51;70.17;;;23.73;;
18505;SDS011;9382;53.242;10.438;2023-01-26T14:41:20;67.27;;;23.13;;
18505;SDS011;9382;53.242;10.438;2023-01-26T14:43:49;70.90;;;23.73;;
18505;SDS011;9382;53.242;10.438;2023-01-26T14:46:17;74.17;;;25.37;;